Celebrity Reflection — 9HA3047 — position and weather

sailwx.info

Track history (hours):
 
Tides and Currents Weather Stations Pressure Air Temp Water Temp Dewpoint Dewpoint Depression Visibility Wind Speed Wind Dir Waves Ship Positions

Celebrity Reflection

Last reported at 2017-Feb-22 01:00 UTC. Time now 2017-Feb-22 04:23 UTC.
Position N 17°42' W 063°06'.

Length 319 m; draft 8.6 m.

Type: Passenger vessel. MMSI: 229074000.

Wind from 330 at 18 knots

Water temperature 24.6 ° C

Date/timePositionNaut miles runAvg speedWind from/ knotsBaromVisibWave heightAir tempDewpointWater temp
2017-Feb-22 01:00N 17°42' W 063°06'0 0.0 330 / 18 24.6
2017-Feb-22 00:00N 17°42' W 063°06'918.8 310 / 201010.0 5.4 25.0
2017-Feb-21 23:30N 17°51' W 063°06'8 7.7
2017-Feb-21 22:31N 17°59' W 063°06'4 0.5
2017-Feb-21 15:14N 18°01' W 063°03'0 0.2
2017-Feb-21 13:05N 18°00' W 063°03'5 7.6
2017-Feb-21 12:29N 18°01' W 063°08'1515.9
2017-Feb-21 11:31N 18°03' W 063°24'611.8
2017-Feb-21 11:00N 18°00' W 063°30'1124.2 330 / 191012.0 2.2 21.4
2017-Feb-21 10:32N 18°04' W 063°41'5016.6
2017-Feb-21 07:30N 18°10' W 064°33'1717.7
2017-Feb-21 06:33N 18°12' W 064°51'3 5.8
2017-Feb-21 06:00N 18°12' W 064°54'5819.8 240 / 201011.0 5.4 25.0
2017-Feb-21 03:04N 18°29' W 065°52'918.1
2017-Feb-21 02:33N 18°30' W 066°02'5 4.7
2017-Feb-21 01:29N 18°28' W 066°07'0 0.0
2017-Feb-21 00:32N 18°28' W 066°07'0 0.0
2017-Feb-20 23:26N 18°28' W 066°07'4 8.6
2017-Feb-20 23:00N 18°24' W 066°06'4 7.6 260 / 101012.0 2.2 26.2
2017-Feb-20 22:29N 18°28' W 066°07'0 0.0
2017-Feb-20 21:32N 18°28' W 066°07'0 0.0
2017-Feb-20 20:29N 18°28' W 066°07'0 0.0
2017-Feb-20 19:32N 18°28' W 066°07'3 3.1
2017-Feb-20 18:33N 18°31' W 066°07'9517.0
2017-Feb-20 13:00N 19°24' W 067°30'4220.8 180 / 51016.0 5.4 26.0
2017-Feb-20 11:00N 19°48' W 068°06'23121.0 170 / 101014.0 5.4 25.0
2017-Feb-20 00:00N 22°06' W 071°24'8220.5 110 / 141017.0 5.4 23.8
2017-Feb-19 20:00N 22°54' W 072°36'29819.9 120 / 101017.5 5.4 24.1
2017-Feb-19 05:00N 25°42' W 077°06'7926.4 170 / 171018.0 5.4 23.4
2017-Feb-19 02:00N 26°06' W 078°30'6218.1 170 / 121021.0 5.4 24.0
2017-Feb-18 22:33N 25°57' W 079°39'2121.0
2017-Feb-18 21:33N 25°48' W 079°60'1010.0
2017-Feb-18 20:33N 25°47' W 080°11'0 0.1
2017-Feb-18 19:32N 25°47' W 080°11'0 0.0
2017-Feb-18 18:32N 25°47' W 080°11'0 0.0
2017-Feb-18 17:32N 25°47' W 080°11'0 0.0
2017-Feb-18 16:32N 25°47' W 080°11'0 0.0
2017-Feb-18 15:32N 25°47' W 080°11'0 0.0
2017-Feb-18 14:32N 25°47' W 080°11'0 0.0
2017-Feb-18 13:32N 25°47' W 080°11'0 0.0
2017-Feb-18 12:30N 25°47' W 080°11'0 0.0
2017-Feb-18 11:32N 25°47' W 080°11'0 0.0
2017-Feb-18 10:32N 25°47' W 080°11'2 1.9
2017-Feb-18 09:33N 25°46' W 080°09'1010.4
2017-Feb-18 08:33N 25°44' W 079°57'1515.2
2017-Feb-18 07:33N 25°30' W 079°52'711.9
2017-Feb-18 07:00N 25°24' W 079°48'10717.9 150 / 151018.0 5.4 23.0
2017-Feb-18 01:00N 23°42' W 079°12'7418.6 360 / 71017.9 5.4 22.9
2017-Feb-17 21:00N 22°42' W 078°24'7915.7 040 / 181018.0 5.4 23.0
2017-Feb-17 16:00N 22°00' W 077°12'9423.6 040 / 151019.0 5.4 24.0
2017-Feb-17 12:00N 23°12' W 076°06'14335.6 230 / 131017.0 5.4 23.021.623.0
2017-Feb-17 08:00N 21°06' W 074°54'11218.6 010 / 91017.0 5.4 25.2
2017-Feb-17 02:00N 20°18' W 073°06'29 2.1 240 / 91017.6 5.4 25.3
2017-Feb-16 12:00N 19°54' W 072°48'7618.9 190 / 101017.027.0 23.018.523.0
2017-Feb-16 08:00N 19°36' W 074°06'8320.7 300 / 101017.0 5.4 24.9
2017-Feb-16 04:00N 19°12' W 075°30'7224.0 170 / 221016.0 5.4 25.6
2017-Feb-16 01:00N 19°48' W 076°36'136 8.0 150 / 251016.0 5.4 25.020.722.0
2017-Feb-15 08:00N 18°42' W 078°42'11619.3 200 / 121015.0 5.4 25.0
2017-Feb-15 02:00N 19°06' W 080°42'1111.3 080 / 111013.0 5.4 25.0
2017-Feb-15 01:00N 19°06' W 080°54'59 5.0 100 / 151014.027.0 25.017.522.0
2017-Feb-14 13:00N 19°24' W 081°54'7618.9 060 / 151016.027.0 25.020.722.0
2017-Feb-14 09:00N 19°42' W 083°12'12918.5 060 / 81015.0 2.2 24.2
2017-Feb-14 02:00N 20°18' W 085°24'3617.9 060 / 151016.0 5.4 24.0
2017-Feb-14 00:00N 20°30' W 086°00'5422.3 050 / 131020.027.0 25.022.222.0
2017-Feb-13 21:34N 20°33' W 086°58'4 3.6
2017-Feb-13 20:27N 20°29' W 086°59'0 0.0
2017-Feb-13 19:32N 20°29' W 086°59'0 0.0
2017-Feb-13 18:32N 20°29' W 086°59'0 0.0
2017-Feb-13 17:33N 20°29' W 086°59'0 0.0
2017-Feb-13 16:32N 20°29' W 086°59'0 0.0
2017-Feb-13 15:33N 20°29' W 086°59'0 0.0
2017-Feb-13 14:33N 20°29' W 086°59'0 0.0
2017-Feb-13 13:32N 20°29' W 086°59'0 0.0
2017-Feb-13 12:32N 20°29' W 086°59'0 0.5
2017-Feb-13 11:34N 20°29' W 086°59'1111.1
2017-Feb-13 10:33N 20°38' W 086°53'3112.2
2017-Feb-13 08:00N 20°54' W 086°24'7013.9 060 / 131019.0 5.4 25.7
2017-Feb-13 03:00N 21°42' W 085°30'4113.6 050 / 121019.0 27.0
2017-Feb-13 00:00N 22°12' W 085°00'5417.9 040 / 201021.0 25.022.222.0
2017-Feb-12 21:00N 22°42' W 084°12'7512.6 030 / 151021.0 5.4 25.5
2017-Feb-12 15:00N 23°18' W 083°00'4615.2 110 / 161022.1 5.4 25.3
2017-Feb-12 12:00N 23°30' W 082°12'5317.5 100 / 151021.027.0 25.022.222.0
2017-Feb-12 09:00N 23°48' W 081°18'6913.8 090 / 141022.0 5.4 24.5
2017-Feb-12 04:00N 24°30' W 080°18'   070 / 151024.0 5.4 23.3
Track history (hours):
 
Tides and Currents Weather Stations Pressure Air Temp Water Temp Dewpoint Dewpoint Depression Visibility Wind Speed Wind Dir Waves Ship Positions

Celebrity Reflection

Last reported at 2017-Feb-22 01:00 UTC. Time now 2017-Feb-22 04:23 UTC.
Position N 17°42' W 063°06'.

Length 319 m; draft 8.6 m.

Type: Passenger vessel. MMSI: 229074000.

Wind from 330 at 18 knots

Water temperature 24.6 ° C

Date/timePositionNaut miles runAvg speedWind from/ knotsBaromVisibWave heightAir tempDewpointWater temp
2017-Feb-22 01:00N 17°42' W 063°06'0 0.0 330 / 18 24.6
2017-Feb-22 00:00N 17°42' W 063°06'918.8 310 / 201010.0 5.4 25.0
2017-Feb-21 23:30N 17°51' W 063°06'8 7.7
2017-Feb-21 22:31N 17°59' W 063°06'4 0.5
2017-Feb-21 15:14N 18°01' W 063°03'0 0.2
2017-Feb-21 13:05N 18°00' W 063°03'5 7.6
2017-Feb-21 12:29N 18°01' W 063°08'1515.9
2017-Feb-21 11:31N 18°03' W 063°24'611.8
2017-Feb-21 11:00N 18°00' W 063°30'1124.2 330 / 191012.0 2.2 21.4
2017-Feb-21 10:32N 18°04' W 063°41'5016.6
2017-Feb-21 07:30N 18°10' W 064°33'1717.7
2017-Feb-21 06:33N 18°12' W 064°51'3 5.8
2017-Feb-21 06:00N 18°12' W 064°54'5819.8 240 / 201011.0 5.4 25.0
2017-Feb-21 03:04N 18°29' W 065°52'918.1
2017-Feb-21 02:33N 18°30' W 066°02'5 4.7
2017-Feb-21 01:29N 18°28' W 066°07'0 0.0
2017-Feb-21 00:32N 18°28' W 066°07'0 0.0
2017-Feb-20 23:26N 18°28' W 066°07'4 8.6
2017-Feb-20 23:00N 18°24' W 066°06'4 7.6 260 / 101012.0 2.2 26.2
2017-Feb-20 22:29N 18°28' W 066°07'0 0.0
2017-Feb-20 21:32N 18°28' W 066°07'0 0.0
2017-Feb-20 20:29N 18°28' W 066°07'0 0.0
2017-Feb-20 19:32N 18°28' W 066°07'3 3.1
2017-Feb-20 18:33N 18°31' W 066°07'9517.0
2017-Feb-20 13:00N 19°24' W 067°30'4220.8 180 / 51016.0 5.4 26.0
2017-Feb-20 11:00N 19°48' W 068°06'23121.0 170 / 101014.0 5.4 25.0
2017-Feb-20 00:00N 22°06' W 071°24'8220.5 110 / 141017.0 5.4 23.8
2017-Feb-19 20:00N 22°54' W 072°36'29819.9 120 / 101017.5 5.4 24.1
2017-Feb-19 05:00N 25°42' W 077°06'7926.4 170 / 171018.0 5.4 23.4
2017-Feb-19 02:00N 26°06' W 078°30'6218.1 170 / 121021.0 5.4 24.0
2017-Feb-18 22:33N 25°57' W 079°39'2121.0
2017-Feb-18 21:33N 25°48' W 079°60'1010.0
2017-Feb-18 20:33N 25°47' W 080°11'0 0.1
2017-Feb-18 19:32N 25°47' W 080°11'0 0.0
2017-Feb-18 18:32N 25°47' W 080°11'0 0.0
2017-Feb-18 17:32N 25°47' W 080°11'0 0.0
2017-Feb-18 16:32N 25°47' W 080°11'0 0.0
2017-Feb-18 15:32N 25°47' W 080°11'0 0.0
2017-Feb-18 14:32N 25°47' W 080°11'0 0.0
2017-Feb-18 13:32N 25°47' W 080°11'0 0.0
2017-Feb-18 12:30N 25°47' W 080°11'0 0.0
2017-Feb-18 11:32N 25°47' W 080°11'0 0.0
2017-Feb-18 10:32N 25°47' W 080°11'2 1.9
2017-Feb-18 09:33N 25°46' W 080°09'1010.4
2017-Feb-18 08:33N 25°44' W 079°57'1515.2
2017-Feb-18 07:33N 25°30' W 079°52'711.9
2017-Feb-18 07:00N 25°24' W 079°48'10717.9 150 / 151018.0 5.4 23.0
2017-Feb-18 01:00N 23°42' W 079°12'7418.6 360 / 71017.9 5.4 22.9
2017-Feb-17 21:00N 22°42' W 078°24'7915.7 040 / 181018.0 5.4 23.0
2017-Feb-17 16:00N 22°00' W 077°12'9423.6 040 / 151019.0 5.4 24.0
2017-Feb-17 12:00N 23°12' W 076°06'14335.6 230 / 131017.0 5.4 23.021.623.0
2017-Feb-17 08:00N 21°06' W 074°54'11218.6 010 / 91017.0 5.4 25.2
2017-Feb-17 02:00N 20°18' W 073°06'29 2.1 240 / 91017.6 5.4 25.3
2017-Feb-16 12:00N 19°54' W 072°48'7618.9 190 / 101017.027.0 23.018.523.0
2017-Feb-16 08:00N 19°36' W 074°06'8320.7 300 / 101017.0 5.4 24.9
2017-Feb-16 04:00N 19°12' W 075°30'7224.0 170 / 221016.0 5.4 25.6
2017-Feb-16 01:00N 19°48' W 076°36'136 8.0 150 / 251016.0 5.4 25.020.722.0
2017-Feb-15 08:00N 18°42' W 078°42'11619.3 200 / 121015.0 5.4 25.0
2017-Feb-15 02:00N 19°06' W 080°42'1111.3 080 / 111013.0 5.4 25.0
2017-Feb-15 01:00N 19°06' W 080°54'59 5.0 100 / 151014.027.0 25.017.522.0
2017-Feb-14 13:00N 19°24' W 081°54'7618.9 060 / 151016.027.0 25.020.722.0
2017-Feb-14 09:00N 19°42' W 083°12'12918.5 060 / 81015.0 2.2 24.2
2017-Feb-14 02:00N 20°18' W 085°24'3617.9 060 / 151016.0 5.4 24.0
2017-Feb-14 00:00N 20°30' W 086°00'5422.3 050 / 131020.027.0 25.022.222.0
2017-Feb-13 21:34N 20°33' W 086°58'4 3.6
2017-Feb-13 20:27N 20°29' W 086°59'0 0.0
2017-Feb-13 19:32N 20°29' W 086°59'0 0.0
2017-Feb-13 18:32N 20°29' W 086°59'0 0.0
2017-Feb-13 17:33N 20°29' W 086°59'0 0.0
2017-Feb-13 16:32N 20°29' W 086°59'0 0.0
2017-Feb-13 15:33N 20°29' W 086°59'0 0.0
2017-Feb-13 14:33N 20°29' W 086°59'0 0.0
2017-Feb-13 13:32N 20°29' W 086°59'0 0.0
2017-Feb-13 12:32N 20°29' W 086°59'0 0.5
2017-Feb-13 11:34N 20°29' W 086°59'1111.1
2017-Feb-13 10:33N 20°38' W 086°53'3112.2
2017-Feb-13 08:00N 20°54' W 086°24'7013.9 060 / 131019.0 5.4 25.7
2017-Feb-13 03:00N 21°42' W 085°30'4113.6 050 / 121019.0 27.0
2017-Feb-13 00:00N 22°12' W 085°00'5417.9 040 / 201021.0 25.022.222.0
2017-Feb-12 21:00N 22°42' W 084°12'7512.6 030 / 151021.0 5.4 25.5
2017-Feb-12 15:00N 23°18' W 083°00'4615.2 110 / 161022.1 5.4 25.3
2017-Feb-12 12:00N 23°30' W 082°12'5317.5 100 / 151021.027.0 25.022.222.0
2017-Feb-12 09:00N 23°48' W 081°18'6913.8 090 / 141022.0 5.4 24.5
2017-Feb-12 04:00N 24°30' W 080°18'   070 / 151024.0 5.4 23.3

Dump ship's entire track history